sensor_id;sensor_type;location;lat;lon;timestamp;P1;durP1;ratioP1;P2;durP2;ratioP2
12469;SDS011;36499;46.484;13.832;2023-07-13T00:00:48;12.30;;;4.40;;
12469;SDS011;36499;46.484;13.832;2023-07-13T00:03:16;10.97;;;4.37;;
12469;SDS011;36499;46.484;13.832;2023-07-13T00:05:43;15.47;;;4.50;;
12469;SDS011;36499;46.484;13.832;2023-07-13T00:08:11;13.77;;;5.40;;
12469;SDS011;36499;46.484;13.832;2023-07-13T00:10:39;14.77;;;4.60;;
12469;SDS011;36499;46.484;13.832;2023-07-13T00:13:07;14.30;;;4.87;;
12469;SDS011;36499;46.484;13.832;2023-07-13T00:15:34;13.70;;;5.00;;
12469;SDS011;36499;46.484;13.832;2023-07-13T00:18:02;21.30;;;5.53;;
12469;SDS011;36499;46.484;13.832;2023-07-13T00:20:31;15.00;;;5.90;;
12469;SDS011;36499;46.484;13.832;2023-07-13T00:22:58;19.83;;;6.47;;
12469;SDS011;36499;46.484;13.832;2023-07-13T00:25:25;16.43;;;6.73;;
12469;SDS011;36499;46.484;13.832;2023-07-13T00:27:53;20.00;;;7.30;;
12469;SDS011;36499;46.484;13.832;2023-07-13T00:30:21;7.80;;;3.20;;
12469;SDS011;36499;46.484;13.832;2023-07-13T00:32:49;4.53;;;2.33;;
12469;SDS011;36499;46.484;13.832;2023-07-13T00:35:16;5.27;;;2.43;;
12469;SDS011;36499;46.484;13.832;2023-07-13T00:37:45;3.13;;;1.80;;
12469;SDS011;36499;46.484;13.832;2023-07-13T00:40:13;4.03;;;1.80;;
12469;SDS011;36499;46.484;13.832;2023-07-13T00:42:41;5.70;;;2.37;;
12469;SDS011;36499;46.484;13.832;2023-07-13T00:48:25;3.73;;;2.40;;
12469;SDS011;36499;46.484;13.832;2023-07-13T00:50:58;6.23;;;2.73;;
12469;SDS011;36499;46.484;13.832;2023-07-13T00:53:29;4.80;;;2.50;;
12469;SDS011;36499;46.484;13.832;2023-07-13T00:55:59;6.00;;;2.67;;
12469;SDS011;36499;46.484;13.832;2023-07-13T00:58:27;8.10;;;2.40;;
12469;SDS011;36499;46.484;13.832;2023-07-13T01:00:55;5.37;;;2.60;;
12469;SDS011;36499;46.484;13.832;2023-07-13T01:03:22;8.87;;;2.50;;
12469;SDS011;36499;46.484;13.832;2023-07-13T01:05:49;5.53;;;2.37;;
12469;SDS011;36499;46.484;13.832;2023-07-13T01:08:18;4.03;;;2.40;;
12469;SDS011;36499;46.484;13.832;2023-07-13T01:10:54;5.23;;;2.40;;
12469;SDS011;36499;46.484;13.832;2023-07-13T01:13:24;5.50;;;2.70;;
12469;SDS011;36499;46.484;13.832;2023-07-13T01:15:52;3.67;;;2.80;;
12469;SDS011;36499;46.484;13.832;2023-07-13T01:18:25;5.30;;;2.67;;
12469;SDS011;36499;46.484;13.832;2023-07-13T01:20:58;5.53;;;2.60;;
12469;SDS011;36499;46.484;13.832;2023-07-13T01:23:27;5.57;;;2.53;;
12469;SDS011;36499;46.484;13.832;2023-07-13T01:25:55;4.30;;;2.27;;
12469;SDS011;36499;46.484;13.832;2023-07-13T01:28:24;5.77;;;2.73;;
12469;SDS011;36499;46.484;13.832;2023-07-13T01:30:53;5.83;;;2.40;;
12469;SDS011;36499;46.484;13.832;2023-07-13T01:33:22;6.57;;;2.47;;
12469;SDS011;36499;46.484;13.832;2023-07-13T01:35:50;4.73;;;2.30;;
12469;SDS011;36499;46.484;13.832;2023-07-13T01:38:19;5.23;;;2.50;;
12469;SDS011;36499;46.484;13.832;2023-07-13T01:40:48;4.93;;;2.63;;
12469;SDS011;36499;46.484;13.832;2023-07-13T01:43:16;3.83;;;2.50;;
12469;SDS011;36499;46.484;13.832;2023-07-13T01:45:44;4.80;;;2.30;;
12469;SDS011;36499;46.484;13.832;2023-07-13T01:48:11;4.63;;;2.57;;
12469;SDS011;36499;46.484;13.832;2023-07-13T01:50:39;5.10;;;2.40;;
12469;SDS011;36499;46.484;13.832;2023-07-13T01:53:06;4.70;;;2.33;;
12469;SDS011;36499;46.484;13.832;2023-07-13T01:55:35;6.97;;;2.60;;
12469;SDS011;36499;46.484;13.832;2023-07-13T01:58:03;10.30;;;2.90;;
12469;SDS011;36499;46.484;13.832;2023-07-13T02:00:31;7.33;;;2.33;;
12469;SDS011;36499;46.484;13.832;2023-07-13T02:02:58;4.97;;;2.50;;
12469;SDS011;36499;46.484;13.832;2023-07-13T02:05:26;7.80;;;2.73;;
12469;SDS011;36499;46.484;13.832;2023-07-13T02:07:53;8.00;;;2.53;;
12469;SDS011;36499;46.484;13.832;2023-07-13T02:10:20;5.43;;;2.40;;
12469;SDS011;36499;46.484;13.832;2023-07-13T02:12:49;5.27;;;2.40;;
12469;SDS011;36499;46.484;13.832;2023-07-13T02:15:17;5.23;;;2.20;;
12469;SDS011;36499;46.484;13.832;2023-07-13T02:17:44;3.50;;;2.13;;
12469;SDS011;36499;46.484;13.832;2023-07-13T02:20:12;3.60;;;2.07;;
12469;SDS011;36499;46.484;13.832;2023-07-13T02:22:39;4.43;;;2.03;;
12469;SDS011;36499;46.484;13.832;2023-07-13T02:25:06;7.97;;;2.60;;
12469;SDS011;36499;46.484;13.832;2023-07-13T02:27:34;6.10;;;2.00;;
12469;SDS011;36499;46.484;13.832;2023-07-13T02:30:03;3.30;;;1.93;;
12469;SDS011;36499;46.484;13.832;2023-07-13T02:32:31;6.83;;;2.27;;
12469;SDS011;36499;46.484;13.832;2023-07-13T02:34:58;5.63;;;2.20;;
12469;SDS011;36499;46.484;13.832;2023-07-13T02:37:25;3.70;;;2.00;;
12469;SDS011;36499;46.484;13.832;2023-07-13T02:39:52;4.50;;;2.00;;
12469;SDS011;36499;46.484;13.832;2023-07-13T02:42:19;3.67;;;2.20;;
12469;SDS011;36499;46.484;13.832;2023-07-13T02:44:46;6.17;;;2.20;;
12469;SDS011;36499;46.484;13.832;2023-07-13T02:47:17;3.77;;;2.30;;
12469;SDS011;36499;46.484;13.832;2023-07-13T02:49:44;4.77;;;2.03;;
12469;SDS011;36499;46.484;13.832;2023-07-13T02:52:11;6.90;;;2.07;;
12469;SDS011;36499;46.484;13.832;2023-07-13T02:54:38;4.83;;;2.00;;
12469;SDS011;36499;46.484;13.832;2023-07-13T02:57:05;4.30;;;2.10;;
12469;SDS011;36499;46.484;13.832;2023-07-13T02:59:33;3.53;;;2.00;;
12469;SDS011;36499;46.484;13.832;2023-07-13T03:02:00;4.60;;;2.03;;
12469;SDS011;36499;46.484;13.832;2023-07-13T03:04:29;4.67;;;2.03;;
12469;SDS011;36499;46.484;13.832;2023-07-13T03:06:56;2.87;;;1.93;;
12469;SDS011;36499;46.484;13.832;2023-07-13T03:09:24;3.20;;;2.20;;
12469;SDS011;36499;46.484;13.832;2023-07-13T03:11:52;3.03;;;1.70;;
12469;SDS011;36499;46.484;13.832;2023-07-13T03:14:20;2.33;;;1.60;;
12469;SDS011;36499;46.484;13.832;2023-07-13T03:16:48;5.83;;;2.30;;
12469;SDS011;36499;46.484;13.832;2023-07-13T03:19:17;5.57;;;2.10;;
12469;SDS011;36499;46.484;13.832;2023-07-13T03:21:45;4.87;;;1.80;;
12469;SDS011;36499;46.484;13.832;2023-07-13T03:24:12;5.67;;;2.20;;
12469;SDS011;36499;46.484;13.832;2023-07-13T03:26:40;6.33;;;2.10;;
12469;SDS011;36499;46.484;13.832;2023-07-13T03:29:07;6.07;;;2.00;;
12469;SDS011;36499;46.484;13.832;2023-07-13T03:31:35;3.20;;;2.10;;
12469;SDS011;36499;46.484;13.832;2023-07-13T03:34:04;3.87;;;2.03;;
12469;SDS011;36499;46.484;13.832;2023-07-13T03:36:31;2.43;;;1.70;;
12469;SDS011;36499;46.484;13.832;2023-07-13T03:39:00;4.40;;;2.10;;
12469;SDS011;36499;46.484;13.832;2023-07-13T03:41:29;3.27;;;1.93;;
12469;SDS011;36499;46.484;13.832;2023-07-13T03:43:56;4.57;;;2.10;;
12469;SDS011;36499;46.484;13.832;2023-07-13T03:46:23;3.23;;;2.00;;
12469;SDS011;36499;46.484;13.832;2023-07-13T03:48:52;3.53;;;2.13;;
12469;SDS011;36499;46.484;13.832;2023-07-13T03:51:19;8.13;;;2.07;;
12469;SDS011;36499;46.484;13.832;2023-07-13T03:53:47;2.63;;;1.70;;
12469;SDS011;36499;46.484;13.832;2023-07-13T03:56:16;4.00;;;2.00;;
12469;SDS011;36499;46.484;13.832;2023-07-13T03:58:45;6.27;;;2.07;;
12469;SDS011;36499;46.484;13.832;2023-07-13T04:01:15;4.23;;;2.03;;
12469;SDS011;36499;46.484;13.832;2023-07-13T04:03:45;4.40;;;1.90;;
12469;SDS011;36499;46.484;13.832;2023-07-13T04:06:14;4.90;;;2.10;;
12469;SDS011;36499;46.484;13.832;2023-07-13T04:08:47;4.20;;;2.20;;
12469;SDS011;36499;46.484;13.832;2023-07-13T04:11:17;3.73;;;2.10;;
12469;SDS011;36499;46.484;13.832;2023-07-13T04:13:45;5.80;;;2.20;;
12469;SDS011;36499;46.484;13.832;2023-07-13T04:16:13;4.60;;;2.10;;
12469;SDS011;36499;46.484;13.832;2023-07-13T04:18:41;5.87;;;2.03;;
12469;SDS011;36499;46.484;13.832;2023-07-13T04:21:09;3.80;;;1.90;;
12469;SDS011;36499;46.484;13.832;2023-07-13T04:23:36;3.10;;;1.90;;
12469;SDS011;36499;46.484;13.832;2023-07-13T04:26:04;3.10;;;1.90;;
12469;SDS011;36499;46.484;13.832;2023-07-13T04:28:33;5.70;;;1.90;;
12469;SDS011;36499;46.484;13.832;2023-07-13T04:31:00;3.00;;;1.90;;
12469;SDS011;36499;46.484;13.832;2023-07-13T04:33:28;3.10;;;2.10;;
12469;SDS011;36499;46.484;13.832;2023-07-13T04:35:55;4.40;;;2.23;;
12469;SDS011;36499;46.484;13.832;2023-07-13T04:38:25;3.73;;;1.90;;
12469;SDS011;36499;46.484;13.832;2023-07-13T04:40:55;4.20;;;2.10;;
12469;SDS011;36499;46.484;13.832;2023-07-13T04:43:26;5.40;;;2.10;;
12469;SDS011;36499;46.484;13.832;2023-07-13T04:45:56;3.87;;;1.83;;
12469;SDS011;36499;46.484;13.832;2023-07-13T04:48:23;5.07;;;1.90;;
12469;SDS011;36499;46.484;13.832;2023-07-13T04:50:54;6.33;;;2.10;;
12469;SDS011;36499;46.484;13.832;2023-07-13T04:53:22;2.40;;;1.80;;
12469;SDS011;36499;46.484;13.832;2023-07-13T04:55:50;5.10;;;1.90;;
12469;SDS011;36499;46.484;13.832;2023-07-13T04:58:17;4.93;;;2.07;;
12469;SDS011;36499;46.484;13.832;2023-07-13T05:00:44;3.47;;;1.93;;
12469;SDS011;36499;46.484;13.832;2023-07-13T05:03:13;4.03;;;2.13;;
12469;SDS011;36499;46.484;13.832;2023-07-13T05:05:40;3.87;;;2.13;;
12469;SDS011;36499;46.484;13.832;2023-07-13T05:08:07;3.47;;;1.97;;
12469;SDS011;36499;46.484;13.832;2023-07-13T05:10:34;5.37;;;2.10;;
12469;SDS011;36499;46.484;13.832;2023-07-13T05:13:02;2.40;;;1.90;;
12469;SDS011;36499;46.484;13.832;2023-07-13T05:15:29;7.17;;;2.23;;
12469;SDS011;36499;46.484;13.832;2023-07-13T05:17:56;4.47;;;1.90;;
12469;SDS011;36499;46.484;13.832;2023-07-13T05:20:24;2.33;;;1.70;;
12469;SDS011;36499;46.484;13.832;2023-07-13T05:22:51;3.30;;;1.90;;
12469;SDS011;36499;46.484;13.832;2023-07-13T05:25:18;2.83;;;2.00;;
12469;SDS011;36499;46.484;13.832;2023-07-13T05:27:45;3.30;;;2.07;;
12469;SDS011;36499;46.484;13.832;2023-07-13T05:30:13;5.10;;;2.30;;
12469;SDS011;36499;46.484;13.832;2023-07-13T05:32:40;4.23;;;2.10;;
12469;SDS011;36499;46.484;13.832;2023-07-13T05:35:08;5.43;;;2.10;;
12469;SDS011;36499;46.484;13.832;2023-07-13T05:37:36;4.13;;;1.97;;
12469;SDS011;36499;46.484;13.832;2023-07-13T05:40:04;3.27;;;2.00;;
12469;SDS011;36499;46.484;13.832;2023-07-13T05:42:32;4.07;;;2.20;;
12469;SDS011;36499;46.484;13.832;2023-07-13T05:44:59;4.67;;;1.83;;
12469;SDS011;36499;46.484;13.832;2023-07-13T05:47:26;4.13;;;1.87;;
12469;SDS011;36499;46.484;13.832;2023-07-13T05:49:53;6.53;;;2.30;;
12469;SDS011;36499;46.484;13.832;2023-07-13T05:52:20;3.37;;;2.07;;
12469;SDS011;36499;46.484;13.832;2023-07-13T05:54:49;5.73;;;1.90;;
12469;SDS011;36499;46.484;13.832;2023-07-13T05:57:16;6.17;;;1.80;;
12469;SDS011;36499;46.484;13.832;2023-07-13T05:59:43;2.83;;;2.10;;
12469;SDS011;36499;46.484;13.832;2023-07-13T06:02:10;3.77;;;2.10;;
12469;SDS011;36499;46.484;13.832;2023-07-13T06:04:37;4.87;;;2.00;;
12469;SDS011;36499;46.484;13.832;2023-07-13T06:07:04;3.70;;;1.80;;
12469;SDS011;36499;46.484;13.832;2023-07-13T06:09:31;4.20;;;1.77;;
12469;SDS011;36499;46.484;13.832;2023-07-13T06:11:59;3.27;;;1.60;;
12469;SDS011;36499;46.484;13.832;2023-07-13T06:14:26;4.27;;;1.80;;
12469;SDS011;36499;46.484;13.832;2023-07-13T06:16:53;2.93;;;1.70;;
12469;SDS011;36499;46.484;13.832;2023-07-13T06:19:21;4.37;;;1.80;;
12469;SDS011;36499;46.484;13.832;2023-07-13T06:21:48;3.87;;;2.03;;
12469;SDS011;36499;46.484;13.832;2023-07-13T06:24:15;3.43;;;2.20;;
12469;SDS011;36499;46.484;13.832;2023-07-13T06:26:42;2.73;;;1.77;;
12469;SDS011;36499;46.484;13.832;2023-07-13T06:29:10;2.97;;;2.10;;
12469;SDS011;36499;46.484;13.832;2023-07-13T06:31:37;3.93;;;2.10;;
12469;SDS011;36499;46.484;13.832;2023-07-13T06:34:04;2.87;;;1.97;;
12469;SDS011;36499;46.484;13.832;2023-07-13T06:36:31;3.47;;;1.70;;
12469;SDS011;36499;46.484;13.832;2023-07-13T06:38:58;2.80;;;1.80;;
12469;SDS011;36499;46.484;13.832;2023-07-13T06:41:25;5.87;;;1.90;;
12469;SDS011;36499;46.484;13.832;2023-07-13T06:43:53;3.03;;;1.97;;
12469;SDS011;36499;46.484;13.832;2023-07-13T06:46:22;2.10;;;1.63;;
12469;SDS011;36499;46.484;13.832;2023-07-13T06:48:49;4.67;;;1.93;;
12469;SDS011;36499;46.484;13.832;2023-07-13T06:51:17;3.03;;;1.80;;
12469;SDS011;36499;46.484;13.832;2023-07-13T06:53:44;4.50;;;2.20;;
12469;SDS011;36499;46.484;13.832;2023-07-13T06:56:11;2.63;;;1.73;;
12469;SDS011;36499;46.484;13.832;2023-07-13T06:58:38;3.10;;;1.90;;
12469;SDS011;36499;46.484;13.832;2023-07-13T07:01:05;3.83;;;1.63;;
12469;SDS011;36499;46.484;13.832;2023-07-13T07:03:34;3.47;;;1.93;;
12469;SDS011;36499;46.484;13.832;2023-07-13T07:06:06;6.17;;;1.70;;
12469;SDS011;36499;46.484;13.832;2023-07-13T07:08:41;3.80;;;1.60;;
12469;SDS011;36499;46.484;13.832;2023-07-13T07:11:08;2.97;;;1.63;;
12469;SDS011;36499;46.484;13.832;2023-07-13T07:13:38;4.03;;;1.83;;
12469;SDS011;36499;46.484;13.832;2023-07-13T07:16:05;2.90;;;1.70;;
12469;SDS011;36499;46.484;13.832;2023-07-13T07:18:35;3.13;;;1.70;;
12469;SDS011;36499;46.484;13.832;2023-07-13T07:21:02;2.93;;;1.63;;
12469;SDS011;36499;46.484;13.832;2023-07-13T07:23:29;2.70;;;1.60;;
12469;SDS011;36499;46.484;13.832;2023-07-13T07:25:56;4.73;;;1.90;;
12469;SDS011;36499;46.484;13.832;2023-07-13T07:28:24;3.37;;;1.83;;
12469;SDS011;36499;46.484;13.832;2023-07-13T07:30:53;2.30;;;1.40;;
12469;SDS011;36499;46.484;13.832;2023-07-13T07:33:22;3.97;;;1.70;;
12469;SDS011;36499;46.484;13.832;2023-07-13T07:35:50;2.53;;;1.60;;
12469;SDS011;36499;46.484;13.832;2023-07-13T07:38:18;2.60;;;1.40;;
12469;SDS011;36499;46.484;13.832;2023-07-13T07:40:46;2.63;;;1.60;;
12469;SDS011;36499;46.484;13.832;2023-07-13T07:43:13;7.03;;;1.77;;
12469;SDS011;36499;46.484;13.832;2023-07-13T07:45:40;4.03;;;1.50;;
12469;SDS011;36499;46.484;13.832;2023-07-13T07:48:07;5.07;;;2.00;;
12469;SDS011;36499;46.484;13.832;2023-07-13T07:50:34;2.90;;;1.60;;
12469;SDS011;36499;46.484;13.832;2023-07-13T07:53:05;5.40;;;1.60;;
12469;SDS011;36499;46.484;13.832;2023-07-13T07:55:35;4.70;;;1.60;;
12469;SDS011;36499;46.484;13.832;2023-07-13T07:58:02;1.87;;;1.50;;
12469;SDS011;36499;46.484;13.832;2023-07-13T08:00:30;3.10;;;1.83;;
12469;SDS011;36499;46.484;13.832;2023-07-13T08:02:58;2.67;;;2.03;;
12469;SDS011;36499;46.484;13.832;2023-07-13T08:05:25;4.10;;;1.70;;
12469;SDS011;36499;46.484;13.832;2023-07-13T08:07:52;2.67;;;1.83;;
12469;SDS011;36499;46.484;13.832;2023-07-13T08:10:21;1.90;;;1.70;;
12469;SDS011;36499;46.484;13.832;2023-07-13T08:12:48;3.43;;;1.77;;
12469;SDS011;36499;46.484;13.832;2023-07-13T08:15:16;5.93;;;2.00;;
12469;SDS011;36499;46.484;13.832;2023-07-13T08:17:45;7.17;;;1.97;;
12469;SDS011;36499;46.484;13.832;2023-07-13T08:20:13;10.53;;;2.20;;
12469;SDS011;36499;46.484;13.832;2023-07-13T08:22:41;2.47;;;1.73;;
12469;SDS011;36499;46.484;13.832;2023-07-13T08:25:08;2.03;;;1.80;;
12469;SDS011;36499;46.484;13.832;2023-07-13T08:27:37;2.47;;;1.77;;
12469;SDS011;36499;46.484;13.832;2023-07-13T08:30:04;3.87;;;1.90;;
12469;SDS011;36499;46.484;13.832;2023-07-13T08:32:33;3.27;;;1.90;;
12469;SDS011;36499;46.484;13.832;2023-07-13T08:35:00;5.87;;;1.90;;
12469;SDS011;36499;46.484;13.832;2023-07-13T08:37:27;3.93;;;1.70;;
12469;SDS011;36499;46.484;13.832;2023-07-13T08:39:54;3.70;;;1.97;;
12469;SDS011;36499;46.484;13.832;2023-07-13T08:42:28;2.80;;;1.70;;
12469;SDS011;36499;46.484;13.832;2023-07-13T08:45:13;2.40;;;1.50;;
12469;SDS011;36499;46.484;13.832;2023-07-13T08:47:48;5.23;;;1.83;;
12469;SDS011;36499;46.484;13.832;2023-07-13T08:50:20;1.53;;;1.43;;
12469;SDS011;36499;46.484;13.832;2023-07-13T08:52:58;3.10;;;1.80;;
12469;SDS011;36499;46.484;13.832;2023-07-13T08:55:29;1.70;;;1.50;;
12469;SDS011;36499;46.484;13.832;2023-07-13T08:58:10;4.27;;;1.70;;
12469;SDS011;36499;46.484;13.832;2023-07-13T09:00:43;2.53;;;1.60;;
12469;SDS011;36499;46.484;13.832;2023-07-13T09:03:20;6.30;;;1.90;;
12469;SDS011;36499;46.484;13.832;2023-07-13T09:05:53;2.70;;;1.70;;
12469;SDS011;36499;46.484;13.832;2023-07-13T09:08:33;3.13;;;1.60;;
12469;SDS011;36499;46.484;13.832;2023-07-13T09:11:16;4.73;;;1.70;;
12469;SDS011;36499;46.484;13.832;2023-07-13T09:14:05;3.27;;;1.67;;
12469;SDS011;36499;46.484;13.832;2023-07-13T09:16:53;3.17;;;1.67;;
12469;SDS011;36499;46.484;13.832;2023-07-13T09:19:23;3.83;;;2.00;;
12469;SDS011;36499;46.484;13.832;2023-07-13T09:21:54;2.93;;;1.70;;
12469;SDS011;36499;46.484;13.832;2023-07-13T09:24:29;2.17;;;1.73;;
12469;SDS011;36499;46.484;13.832;2023-07-13T09:27:09;3.00;;;1.83;;
12469;SDS011;36499;46.484;13.832;2023-07-13T09:29:47;2.80;;;1.70;;
12469;SDS011;36499;46.484;13.832;2023-07-13T09:32:22;2.53;;;1.60;;
12469;SDS011;36499;46.484;13.832;2023-07-13T09:34:53;2.43;;;1.70;;
12469;SDS011;36499;46.484;13.832;2023-07-13T09:37:22;1.90;;;1.40;;
12469;SDS011;36499;46.484;13.832;2023-07-13T09:39:57;3.00;;;1.70;;
12469;SDS011;36499;46.484;13.832;2023-07-13T09:42:29;3.10;;;1.60;;
12469;SDS011;36499;46.484;13.832;2023-07-13T09:45:00;4.70;;;2.10;;
12469;SDS011;36499;46.484;13.832;2023-07-13T09:47:31;6.17;;;2.20;;
12469;SDS011;36499;46.484;13.832;2023-07-13T09:50:06;2.90;;;2.00;;
12469;SDS011;36499;46.484;13.832;2023-07-13T09:52:42;9.03;;;2.70;;
12469;SDS011;36499;46.484;13.832;2023-07-13T09:55:23;6.50;;;2.73;;
12469;SDS011;36499;46.484;13.832;2023-07-13T09:57:53;6.07;;;2.50;;
12469;SDS011;36499;46.484;13.832;2023-07-13T10:00:22;8.33;;;2.27;;
12469;SDS011;36499;46.484;13.832;2023-07-13T10:03:02;3.37;;;1.80;;
12469;SDS011;36499;46.484;13.832;2023-07-13T10:05:38;2.87;;;1.80;;
12469;SDS011;36499;46.484;13.832;2023-07-13T10:08:15;3.17;;;1.90;;
12469;SDS011;36499;46.484;13.832;2023-07-13T10:10:52;3.50;;;2.17;;
12469;SDS011;36499;46.484;13.832;2023-07-13T10:13:27;4.27;;;1.97;;
12469;SDS011;36499;46.484;13.832;2023-07-13T10:16:01;4.43;;;2.30;;
12469;SDS011;36499;46.484;13.832;2023-07-13T10:18:31;3.23;;;2.00;;
12469;SDS011;36499;46.484;13.832;2023-07-13T10:21:14;2.93;;;1.67;;
12469;SDS011;36499;46.484;13.832;2023-07-13T10:23:45;2.67;;;1.70;;
12469;SDS011;36499;46.484;13.832;2023-07-13T10:26:19;3.13;;;1.77;;
12469;SDS011;36499;46.484;13.832;2023-07-13T10:28:53;3.90;;;2.00;;
12469;SDS011;36499;46.484;13.832;2023-07-13T10:31:26;3.90;;;1.93;;
12469;SDS011;36499;46.484;13.832;2023-07-13T10:33:54;4.07;;;1.93;;
12469;SDS011;36499;46.484;13.832;2023-07-13T10:36:29;3.37;;;2.10;;
12469;SDS011;36499;46.484;13.832;2023-07-13T10:39:06;6.93;;;2.80;;
12469;SDS011;36499;46.484;13.832;2023-07-13T10:41:39;5.27;;;2.10;;
12469;SDS011;36499;46.484;13.832;2023-07-13T10:44:12;2.17;;;1.80;;
12469;SDS011;36499;46.484;13.832;2023-07-13T10:46:52;2.33;;;1.63;;
12469;SDS011;36499;46.484;13.832;2023-07-13T10:49:23;2.17;;;1.80;;
12469;SDS011;36499;46.484;13.832;2023-07-13T10:51:54;3.33;;;1.80;;
12469;SDS011;36499;46.484;13.832;2023-07-13T10:54:22;7.13;;;2.70;;
12469;SDS011;36499;46.484;13.832;2023-07-13T10:57:14;10.23;;;4.33;;
12469;SDS011;36499;46.484;13.832;2023-07-13T10:59:48;5.87;;;3.00;;
12469;SDS011;36499;46.484;13.832;2023-07-13T11:02:42;6.13;;;2.33;;
12469;SDS011;36499;46.484;13.832;2023-07-13T11:05:20;5.20;;;2.33;;
12469;SDS011;36499;46.484;13.832;2023-07-13T11:07:56;6.70;;;2.37;;
12469;SDS011;36499;46.484;13.832;2023-07-13T11:10:52;4.17;;;2.23;;
12469;SDS011;36499;46.484;13.832;2023-07-13T11:16:35;5.90;;;2.90;;
12469;SDS011;36499;46.484;13.832;2023-07-13T11:22:22;9.33;;;3.10;;
12469;SDS011;36499;46.484;13.832;2023-07-13T11:24:54;6.40;;;3.23;;
12469;SDS011;36499;46.484;13.832;2023-07-13T11:27:37;5.43;;;2.80;;
12469;SDS011;36499;46.484;13.832;2023-07-13T11:33:07;3.90;;;2.50;;
12469;SDS011;36499;46.484;13.832;2023-07-13T11:35:46;5.93;;;2.60;;
12469;SDS011;36499;46.484;13.832;2023-07-13T11:38:28;5.00;;;2.50;;
12469;SDS011;36499;46.484;13.832;2023-07-13T11:41:03;8.23;;;3.20;;
12469;SDS011;36499;46.484;13.832;2023-07-13T11:43:33;6.33;;;2.73;;
12469;SDS011;36499;46.484;13.832;2023-07-13T11:46:12;5.20;;;2.80;;
12469;SDS011;36499;46.484;13.832;2023-07-13T11:48:41;13.43;;;3.10;;
12469;SDS011;36499;46.484;13.832;2023-07-13T11:51:14;5.33;;;2.70;;
12469;SDS011;36499;46.484;13.832;2023-07-13T11:53:49;6.07;;;2.67;;
12469;SDS011;36499;46.484;13.832;2023-07-13T11:56:20;4.00;;;2.63;;
12469;SDS011;36499;46.484;13.832;2023-07-13T11:58:49;5.13;;;2.80;;
12469;SDS011;36499;46.484;13.832;2023-07-13T12:01:20;5.70;;;2.30;;
12469;SDS011;36499;46.484;13.832;2023-07-13T12:03:54;4.23;;;2.20;;
12469;SDS011;36499;46.484;13.832;2023-07-13T12:06:25;4.60;;;2.80;;
12469;SDS011;36499;46.484;13.832;2023-07-13T12:08:56;3.97;;;2.17;;
12469;SDS011;36499;46.484;13.832;2023-07-13T12:11:24;5.73;;;2.27;;
12469;SDS011;36499;46.484;13.832;2023-07-13T12:13:52;6.87;;;2.90;;
12469;SDS011;36499;46.484;13.832;2023-07-13T12:16:23;5.57;;;2.40;;
12469;SDS011;36499;46.484;13.832;2023-07-13T12:18:58;7.20;;;2.60;;
12469;SDS011;36499;46.484;13.832;2023-07-13T12:21:30;4.20;;;2.43;;
12469;SDS011;36499;46.484;13.832;2023-07-13T12:24:00;6.50;;;2.47;;
12469;SDS011;36499;46.484;13.832;2023-07-13T12:26:29;4.30;;;2.57;;
12469;SDS011;36499;46.484;13.832;2023-07-13T12:28:58;3.50;;;2.73;;
12469;SDS011;36499;46.484;13.832;2023-07-13T12:31:34;3.37;;;2.20;;
12469;SDS011;36499;46.484;13.832;2023-07-13T12:34:08;7.20;;;2.03;;
12469;SDS011;36499;46.484;13.832;2023-07-13T12:36:40;4.50;;;2.30;;
12469;SDS011;36499;46.484;13.832;2023-07-13T12:39:17;6.53;;;2.57;;
12469;SDS011;36499;46.484;13.832;2023-07-13T12:41:48;5.23;;;2.33;;
12469;SDS011;36499;46.484;13.832;2023-07-13T12:44:20;4.43;;;2.13;;
12469;SDS011;36499;46.484;13.832;2023-07-13T12:46:56;2.97;;;1.93;;
12469;SDS011;36499;46.484;13.832;2023-07-13T12:49:30;3.80;;;2.10;;
12469;SDS011;36499;46.484;13.832;2023-07-13T12:52:02;4.13;;;2.53;;
12469;SDS011;36499;46.484;13.832;2023-07-13T12:54:40;3.10;;;2.30;;
12469;SDS011;36499;46.484;13.832;2023-07-13T12:57:08;6.27;;;2.40;;
12469;SDS011;36499;46.484;13.832;2023-07-13T12:59:43;5.47;;;2.30;;
12469;SDS011;36499;46.484;13.832;2023-07-13T13:02:18;5.57;;;2.13;;
12469;SDS011;36499;46.484;13.832;2023-07-13T13:04:54;3.97;;;2.20;;
12469;SDS011;36499;46.484;13.832;2023-07-13T13:07:24;4.07;;;2.17;;
12469;SDS011;36499;46.484;13.832;2023-07-13T13:09:52;3.67;;;2.30;;
12469;SDS011;36499;46.484;13.832;2023-07-13T13:12:20;6.03;;;2.00;;
12469;SDS011;36499;46.484;13.832;2023-07-13T13:14:49;5.13;;;2.37;;
12469;SDS011;36499;46.484;13.832;2023-07-13T13:17:18;4.30;;;2.30;;
12469;SDS011;36499;46.484;13.832;2023-07-13T13:19:49;3.57;;;2.27;;
12469;SDS011;36499;46.484;13.832;2023-07-13T13:22:19;3.60;;;2.20;;
12469;SDS011;36499;46.484;13.832;2023-07-13T13:24:48;5.03;;;2.53;;
12469;SDS011;36499;46.484;13.832;2023-07-13T13:27:15;2.80;;;2.10;;
12469;SDS011;36499;46.484;13.832;2023-07-13T13:29:45;4.10;;;2.43;;
12469;SDS011;36499;46.484;13.832;2023-07-13T13:32:14;6.43;;;2.73;;
12469;SDS011;36499;46.484;13.832;2023-07-13T13:34:42;4.73;;;2.20;;
12469;SDS011;36499;46.484;13.832;2023-07-13T13:37:18;2.90;;;2.33;;
12469;SDS011;36499;46.484;13.832;2023-07-13T13:39:50;4.73;;;2.30;;
12469;SDS011;36499;46.484;13.832;2023-07-13T13:42:18;5.17;;;2.47;;
12469;SDS011;36499;46.484;13.832;2023-07-13T13:44:47;2.60;;;2.40;;
12469;SDS011;36499;46.484;13.832;2023-07-13T13:47:22;5.83;;;3.40;;
12469;SDS011;36499;46.484;13.832;2023-07-13T13:49:57;6.80;;;3.10;;
12469;SDS011;36499;46.484;13.832;2023-07-13T13:52:25;5.40;;;3.23;;
12469;SDS011;36499;46.484;13.832;2023-07-13T13:54:53;5.57;;;3.30;;
12469;SDS011;36499;46.484;13.832;2023-07-13T13:57:22;5.90;;;3.33;;
12469;SDS011;36499;46.484;13.832;2023-07-13T13:59:51;7.00;;;3.30;;
12469;SDS011;36499;46.484;13.832;2023-07-13T14:02:25;6.00;;;3.60;;
12469;SDS011;36499;46.484;13.832;2023-07-13T14:04:56;7.10;;;3.67;;
12469;SDS011;36499;46.484;13.832;2023-07-13T14:07:27;6.80;;;3.33;;
12469;SDS011;36499;46.484;13.832;2023-07-13T14:09:57;4.30;;;2.97;;
12469;SDS011;36499;46.484;13.832;2023-07-13T14:12:26;7.20;;;3.13;;
12469;SDS011;36499;46.484;13.832;2023-07-13T14:14:55;4.97;;;3.20;;
12469;SDS011;36499;46.484;13.832;2023-07-13T14:17:25;5.33;;;3.50;;
12469;SDS011;36499;46.484;13.832;2023-07-13T14:19:54;3.43;;;2.90;;
12469;SDS011;36499;46.484;13.832;2023-07-13T14:22:23;3.67;;;2.50;;
12469;SDS011;36499;46.484;13.832;2023-07-13T14:24:51;4.47;;;2.60;;
12469;SDS011;36499;46.484;13.832;2023-07-13T14:27:20;3.00;;;2.50;;
12469;SDS011;36499;46.484;13.832;2023-07-13T14:29:48;4.60;;;2.57;;
12469;SDS011;36499;46.484;13.832;2023-07-13T14:32:15;5.67;;;2.97;;
12469;SDS011;36499;46.484;13.832;2023-07-13T14:34:43;3.43;;;2.60;;
12469;SDS011;36499;46.484;13.832;2023-07-13T14:37:11;5.53;;;2.60;;
12469;SDS011;36499;46.484;13.832;2023-07-13T14:39:42;3.33;;;2.50;;
12469;SDS011;36499;46.484;13.832;2023-07-13T14:42:15;5.03;;;2.80;;
12469;SDS011;36499;46.484;13.832;2023-07-13T14:44:43;3.37;;;2.43;;
12469;SDS011;36499;46.484;13.832;2023-07-13T14:47:10;5.50;;;2.63;;
12469;SDS011;36499;46.484;13.832;2023-07-13T14:49:38;3.17;;;2.40;;
12469;SDS011;36499;46.484;13.832;2023-07-13T14:52:10;2.77;;;2.40;;
12469;SDS011;36499;46.484;13.832;2023-07-13T14:54:40;3.27;;;2.00;;
12469;SDS011;36499;46.484;13.832;2023-07-13T14:57:12;4.07;;;2.50;;
12469;SDS011;36499;46.484;13.832;2023-07-13T14:59:41;2.63;;;2.33;;
12469;SDS011;36499;46.484;13.832;2023-07-13T15:02:14;2.87;;;2.30;;